sensor_id;sensor_type;location;lat;lon;timestamp;P1;durP1;ratioP1;P2;durP2;ratioP2
63801;SDS011;49949;43.060;25.624;2022-11-02T00:01:55;16.15;;;8.13;;
63801;SDS011;49949;43.060;25.624;2022-11-02T00:04:21;22.88;;;7.57;;
63801;SDS011;49949;43.060;25.624;2022-11-02T00:06:47;21.30;;;8.35;;
63801;SDS011;49949;43.060;25.624;2022-11-02T00:09:12;14.25;;;7.63;;
63801;SDS011;49949;43.060;25.624;2022-11-02T00:11:38;20.77;;;7.78;;
63801;SDS011;49949;43.060;25.624;2022-11-02T00:14:04;18.65;;;8.02;;
63801;SDS011;49949;43.060;25.624;2022-11-02T00:16:29;16.95;;;8.07;;
63801;SDS011;49949;43.060;25.624;2022-11-02T00:18:56;17.55;;;8.13;;
63801;SDS011;49949;43.060;25.624;2022-11-02T00:21:24;20.42;;;7.63;;
63801;SDS011;49949;43.060;25.624;2022-11-02T00:23:51;17.02;;;7.72;;
63801;SDS011;49949;43.060;25.624;2022-11-02T00:26:18;24.40;;;8.43;;
63801;SDS011;49949;43.060;25.624;2022-11-02T00:28:44;17.17;;;8.70;;
63801;SDS011;49949;43.060;25.624;2022-11-02T00:31:10;20.27;;;8.77;;
63801;SDS011;49949;43.060;25.624;2022-11-02T00:33:35;22.50;;;8.90;;
63801;SDS011;49949;43.060;25.624;2022-11-02T00:36:01;16.50;;;8.88;;
63801;SDS011;49949;43.060;25.624;2022-11-02T00:38:27;18.60;;;8.23;;
63801;SDS011;49949;43.060;25.624;2022-11-02T00:40:52;19.23;;;8.25;;
63801;SDS011;49949;43.060;25.624;2022-11-02T00:43:18;16.73;;;8.00;;
63801;SDS011;49949;43.060;25.624;2022-11-02T00:45:44;18.95;;;8.90;;
63801;SDS011;49949;43.060;25.624;2022-11-02T00:48:09;20.40;;;8.32;;
63801;SDS011;49949;43.060;25.624;2022-11-02T00:50:35;21.67;;;8.57;;
63801;SDS011;49949;43.060;25.624;2022-11-02T00:53:01;20.88;;;8.38;;
63801;SDS011;49949;43.060;25.624;2022-11-02T00:55:26;16.58;;;7.90;;
63801;SDS011;49949;43.060;25.624;2022-11-02T00:57:52;22.73;;;8.90;;
63801;SDS011;49949;43.060;25.624;2022-11-02T01:00:18;18.35;;;8.57;;
63801;SDS011;49949;43.060;25.624;2022-11-02T01:02:44;17.42;;;8.20;;
63801;SDS011;49949;43.060;25.624;2022-11-02T01:05:09;23.08;;;8.85;;
63801;SDS011;49949;43.060;25.624;2022-11-02T01:07:36;29.10;;;9.13;;
63801;SDS011;49949;43.060;25.624;2022-11-02T01:10:03;21.42;;;8.60;;
63801;SDS011;49949;43.060;25.624;2022-11-02T01:12:34;21.60;;;8.75;;
63801;SDS011;49949;43.060;25.624;2022-11-02T01:15:01;27.77;;;8.80;;
63801;SDS011;49949;43.060;25.624;2022-11-02T01:17:27;17.10;;;7.72;;
63801;SDS011;49949;43.060;25.624;2022-11-02T01:19:53;19.13;;;8.85;;
63801;SDS011;49949;43.060;25.624;2022-11-02T01:22:19;19.38;;;9.05;;
63801;SDS011;49949;43.060;25.624;2022-11-02T01:24:44;16.73;;;8.85;;
63801;SDS011;49949;43.060;25.624;2022-11-02T01:27:10;19.95;;;8.35;;
63801;SDS011;49949;43.060;25.624;2022-11-02T01:29:36;19.67;;;9.30;;
63801;SDS011;49949;43.060;25.624;2022-11-02T01:32:01;22.08;;;9.88;;
63801;SDS011;49949;43.060;25.624;2022-11-02T01:34:27;21.77;;;9.07;;
63801;SDS011;49949;43.060;25.624;2022-11-02T01:36:53;24.00;;;10.02;;
63801;SDS011;49949;43.060;25.624;2022-11-02T01:39:19;21.25;;;8.60;;
63801;SDS011;49949;43.060;25.624;2022-11-02T01:41:49;25.45;;;9.88;;
63801;SDS011;49949;43.060;25.624;2022-11-02T01:47:06;20.77;;;9.13;;
63801;SDS011;49949;43.060;25.624;2022-11-02T01:49:36;20.10;;;8.90;;
63801;SDS011;49949;43.060;25.624;2022-11-02T01:55:11;18.92;;;8.73;;
63801;SDS011;49949;43.060;25.624;2022-11-02T01:57:44;18.63;;;9.60;;
63801;SDS011;49949;43.060;25.624;2022-11-02T02:00:13;21.88;;;9.73;;
63801;SDS011;49949;43.060;25.624;2022-11-02T02:02:48;24.05;;;9.23;;
63801;SDS011;49949;43.060;25.624;2022-11-02T02:05:17;17.75;;;8.32;;
63801;SDS011;49949;43.060;25.624;2022-11-02T02:07:46;18.27;;;8.82;;
63801;SDS011;49949;43.060;25.624;2022-11-02T02:10:12;18.38;;;8.75;;
63801;SDS011;49949;43.060;25.624;2022-11-02T02:12:38;20.10;;;9.48;;
63801;SDS011;49949;43.060;25.624;2022-11-02T02:15:06;24.10;;;9.25;;
63801;SDS011;49949;43.060;25.624;2022-11-02T02:29:50;17.52;;;8.05;;
63801;SDS011;49949;43.060;25.624;2022-11-02T02:40:21;20.90;;;9.02;;
63801;SDS011;49949;43.060;25.624;2022-11-02T02:45:49;20.92;;;7.88;;
63801;SDS011;49949;43.060;25.624;2022-11-02T02:48:23;22.38;;;7.65;;
63801;SDS011;49949;43.060;25.624;2022-11-02T02:50:54;19.20;;;9.18;;
63801;SDS011;49949;43.060;25.624;2022-11-02T02:53:30;18.15;;;8.60;;
63801;SDS011;49949;43.060;25.624;2022-11-02T02:56:00;17.60;;;8.80;;
63801;SDS011;49949;43.060;25.624;2022-11-02T02:58:29;20.92;;;9.32;;
63801;SDS011;49949;43.060;25.624;2022-11-02T03:01:02;25.92;;;8.88;;
63801;SDS011;49949;43.060;25.624;2022-11-02T03:03:30;20.45;;;10.43;;
63801;SDS011;49949;43.060;25.624;2022-11-02T03:11:27;19.45;;;8.20;;
63801;SDS011;49949;43.060;25.624;2022-11-02T03:22:27;16.40;;;7.68;;
63801;SDS011;49949;43.060;25.624;2022-11-02T03:25:08;20.77;;;7.93;;
63801;SDS011;49949;43.060;25.624;2022-11-02T03:30:36;18.90;;;7.55;;
63801;SDS011;49949;43.060;25.624;2022-11-02T03:33:18;22.35;;;8.98;;
63801;SDS011;49949;43.060;25.624;2022-11-02T03:38:40;16.75;;;8.18;;
63801;SDS011;49949;43.060;25.624;2022-11-02T03:41:09;22.15;;;8.55;;
63801;SDS011;49949;43.060;25.624;2022-11-02T03:43:36;14.65;;;8.00;;
63801;SDS011;49949;43.060;25.624;2022-11-02T03:46:04;19.67;;;8.23;;
63801;SDS011;49949;43.060;25.624;2022-11-02T03:48:36;24.92;;;8.90;;
63801;SDS011;49949;43.060;25.624;2022-11-02T03:51:06;16.08;;;8.77;;
63801;SDS011;49949;43.060;25.624;2022-11-02T03:56:20;17.30;;;8.57;;
63801;SDS011;49949;43.060;25.624;2022-11-02T03:58:58;24.15;;;10.10;;
63801;SDS011;49949;43.060;25.624;2022-11-02T04:01:24;19.83;;;8.38;;
63801;SDS011;49949;43.060;25.624;2022-11-02T04:03:51;26.55;;;8.95;;
63801;SDS011;49949;43.060;25.624;2022-11-02T04:06:17;20.73;;;10.07;;
63801;SDS011;49949;43.060;25.624;2022-11-02T04:08:44;30.67;;;10.82;;
63801;SDS011;49949;43.060;25.624;2022-11-02T04:11:11;29.83;;;9.63;;
63801;SDS011;49949;43.060;25.624;2022-11-02T04:13:56;23.88;;;10.85;;
63801;SDS011;49949;43.060;25.624;2022-11-02T04:16:40;25.30;;;9.30;;
63801;SDS011;49949;43.060;25.624;2022-11-02T04:19:08;22.20;;;8.88;;
63801;SDS011;49949;43.060;25.624;2022-11-02T04:21:52;17.70;;;9.82;;
63801;SDS011;49949;43.060;25.624;2022-11-02T04:24:37;16.23;;;8.02;;
63801;SDS011;49949;43.060;25.624;2022-11-02T04:27:21;24.00;;;9.23;;
63801;SDS011;49949;43.060;25.624;2022-11-02T04:29:47;17.05;;;8.70;;
63801;SDS011;49949;43.060;25.624;2022-11-02T04:32:13;21.52;;;9.52;;
63801;SDS011;49949;43.060;25.624;2022-11-02T04:34:39;20.30;;;9.38;;
63801;SDS011;49949;43.060;25.624;2022-11-02T04:37:04;23.55;;;9.07;;
63801;SDS011;49949;43.060;25.624;2022-11-02T04:39:50;24.95;;;9.65;;
63801;SDS011;49949;43.060;25.624;2022-11-02T04:42:15;25.40;;;9.95;;
63801;SDS011;49949;43.060;25.624;2022-11-02T04:44:41;26.67;;;11.40;;
63801;SDS011;49949;43.060;25.624;2022-11-02T04:47:08;36.97;;;12.70;;
63801;SDS011;49949;43.060;25.624;2022-11-02T04:49:34;24.20;;;11.32;;
63801;SDS011;49949;43.060;25.624;2022-11-02T04:51:59;27.92;;;11.80;;
63801;SDS011;49949;43.060;25.624;2022-11-02T04:54:25;33.30;;;10.32;;
63801;SDS011;49949;43.060;25.624;2022-11-02T04:56:51;20.52;;;9.30;;
63801;SDS011;49949;43.060;25.624;2022-11-02T04:59:16;21.13;;;10.27;;
63801;SDS011;49949;43.060;25.624;2022-11-02T05:01:42;22.08;;;10.65;;
63801;SDS011;49949;43.060;25.624;2022-11-02T05:04:08;25.88;;;11.18;;
63801;SDS011;49949;43.060;25.624;2022-11-02T05:06:34;28.13;;;10.45;;
63801;SDS011;49949;43.060;25.624;2022-11-02T05:09:00;23.10;;;11.07;;
63801;SDS011;49949;43.060;25.624;2022-11-02T05:11:26;32.38;;;10.38;;
63801;SDS011;49949;43.060;25.624;2022-11-02T05:13:52;23.23;;;10.73;;
63801;SDS011;49949;43.060;25.624;2022-11-02T05:16:17;18.48;;;10.07;;
63801;SDS011;49949;43.060;25.624;2022-11-02T05:18:43;24.40;;;10.05;;
63801;SDS011;49949;43.060;25.624;2022-11-02T05:21:09;26.35;;;10.35;;
63801;SDS011;49949;43.060;25.624;2022-11-02T05:23:36;30.60;;;10.15;;
63801;SDS011;49949;43.060;25.624;2022-11-02T05:26:03;25.00;;;10.30;;
63801;SDS011;49949;43.060;25.624;2022-11-02T05:28:31;51.17;;;18.50;;
63801;SDS011;49949;43.060;25.624;2022-11-02T05:30:58;40.65;;;11.82;;
63801;SDS011;49949;43.060;25.624;2022-11-02T05:33:24;30.55;;;11.57;;
63801;SDS011;49949;43.060;25.624;2022-11-02T05:35:53;25.00;;;10.63;;
63801;SDS011;49949;43.060;25.624;2022-11-02T05:38:20;37.42;;;9.88;;
63801;SDS011;49949;43.060;25.624;2022-11-02T05:40:50;32.83;;;10.82;;
63801;SDS011;49949;43.060;25.624;2022-11-02T05:43:19;25.85;;;10.80;;
63801;SDS011;49949;43.060;25.624;2022-11-02T05:45:50;25.95;;;10.35;;
63801;SDS011;49949;43.060;25.624;2022-11-02T05:48:17;36.80;;;9.85;;
63801;SDS011;49949;43.060;25.624;2022-11-02T05:50:42;36.85;;;11.35;;
63801;SDS011;49949;43.060;25.624;2022-11-02T05:53:08;33.90;;;11.27;;
63801;SDS011;49949;43.060;25.624;2022-11-02T05:55:34;40.65;;;10.60;;
63801;SDS011;49949;43.060;25.624;2022-11-02T05:57:59;34.50;;;12.27;;
63801;SDS011;49949;43.060;25.624;2022-11-02T06:00:25;52.35;;;11.60;;
63801;SDS011;49949;43.060;25.624;2022-11-02T06:02:54;51.45;;;15.35;;
63801;SDS011;49949;43.060;25.624;2022-11-02T06:05:21;34.22;;;13.75;;
63801;SDS011;49949;43.060;25.624;2022-11-02T06:07:48;47.40;;;13.52;;
63801;SDS011;49949;43.060;25.624;2022-11-02T06:10:13;50.95;;;15.25;;
63801;SDS011;49949;43.060;25.624;2022-11-02T06:12:39;52.88;;;15.18;;
63801;SDS011;49949;43.060;25.624;2022-11-02T06:15:05;47.15;;;15.18;;
63801;SDS011;49949;43.060;25.624;2022-11-02T06:17:38;46.10;;;15.63;;
63801;SDS011;49949;43.060;25.624;2022-11-02T06:20:04;47.35;;;16.58;;
63801;SDS011;49949;43.060;25.624;2022-11-02T06:22:30;48.00;;;15.50;;
63801;SDS011;49949;43.060;25.624;2022-11-02T06:25:05;54.13;;;15.93;;
63801;SDS011;49949;43.060;25.624;2022-11-02T06:27:32;65.13;;;17.38;;
63801;SDS011;49949;43.060;25.624;2022-11-02T06:29:58;62.58;;;20.10;;
63801;SDS011;49949;43.060;25.624;2022-11-02T06:32:24;108.70;;;28.42;;
63801;SDS011;49949;43.060;25.624;2022-11-02T06:34:50;72.72;;;29.88;;
63801;SDS011;49949;43.060;25.624;2022-11-02T06:37:15;73.25;;;23.58;;
63801;SDS011;49949;43.060;25.624;2022-11-02T06:39:41;59.08;;;19.10;;
63801;SDS011;49949;43.060;25.624;2022-11-02T06:42:07;58.38;;;19.42;;
63801;SDS011;49949;43.060;25.624;2022-11-02T06:44:32;89.28;;;25.10;;
63801;SDS011;49949;43.060;25.624;2022-11-02T06:46:58;70.47;;;24.92;;
63801;SDS011;49949;43.060;25.624;2022-11-02T06:49:24;64.65;;;23.83;;
63801;SDS011;49949;43.060;25.624;2022-11-02T06:51:50;76.63;;;25.15;;
63801;SDS011;49949;43.060;25.624;2022-11-02T06:54:16;70.82;;;25.05;;
63801;SDS011;49949;43.060;25.624;2022-11-02T06:56:41;69.30;;;24.42;;
63801;SDS011;49949;43.060;25.624;2022-11-02T06:59:07;63.22;;;23.05;;
63801;SDS011;49949;43.060;25.624;2022-11-02T07:01:33;87.28;;;30.23;;
63801;SDS011;49949;43.060;25.624;2022-11-02T07:03:59;99.95;;;28.90;;
63801;SDS011;49949;43.060;25.624;2022-11-02T07:06:26;78.57;;;28.50;;
63801;SDS011;49949;43.060;25.624;2022-11-02T07:08:51;93.95;;;33.75;;
63801;SDS011;49949;43.060;25.624;2022-11-02T07:11:18;79.07;;;31.38;;
63801;SDS011;49949;43.060;25.624;2022-11-02T07:13:44;81.82;;;31.02;;
63801;SDS011;49949;43.060;25.624;2022-11-02T07:16:09;86.18;;;34.92;;
63801;SDS011;49949;43.060;25.624;2022-11-02T07:18:35;74.05;;;31.13;;
63801;SDS011;49949;43.060;25.624;2022-11-02T07:21:01;70.05;;;26.98;;
63801;SDS011;49949;43.060;25.624;2022-11-02T07:23:26;66.15;;;26.77;;
63801;SDS011;49949;43.060;25.624;2022-11-02T07:25:53;55.55;;;24.63;;
63801;SDS011;49949;43.060;25.624;2022-11-02T07:28:18;468.50;;;52.72;;
63801;SDS011;49949;43.060;25.624;2022-11-02T07:30:44;98.82;;;37.75;;
63801;SDS011;49949;43.060;25.624;2022-11-02T07:33:10;83.22;;;29.77;;
63801;SDS011;49949;43.060;25.624;2022-11-02T07:35:36;68.05;;;24.80;;
63801;SDS011;49949;43.060;25.624;2022-11-02T07:38:05;61.30;;;21.42;;
63801;SDS011;49949;43.060;25.624;2022-11-02T07:40:32;49.00;;;20.13;;
63801;SDS011;49949;43.060;25.624;2022-11-02T07:42:59;71.75;;;24.20;;
63801;SDS011;49949;43.060;25.624;2022-11-02T07:45:25;56.63;;;20.75;;
63801;SDS011;49949;43.060;25.624;2022-11-02T07:47:53;46.58;;;20.80;;
63801;SDS011;49949;43.060;25.624;2022-11-02T07:50:19;38.72;;;18.23;;
63801;SDS011;49949;43.060;25.624;2022-11-02T07:52:55;54.85;;;19.38;;
63801;SDS011;49949;43.060;25.624;2022-11-02T07:55:23;43.30;;;17.98;;
63801;SDS011;49949;43.060;25.624;2022-11-02T07:57:54;81.75;;;16.98;;
63801;SDS011;49949;43.060;25.624;2022-11-02T08:00:21;40.38;;;16.48;;
63801;SDS011;49949;43.060;25.624;2022-11-02T08:02:48;33.28;;;16.02;;
63801;SDS011;49949;43.060;25.624;2022-11-02T08:05:17;61.72;;;21.85;;
63801;SDS011;49949;43.060;25.624;2022-11-02T08:07:43;47.58;;;18.17;;
63801;SDS011;49949;43.060;25.624;2022-11-02T08:10:08;127.75;;;22.73;;
63801;SDS011;49949;43.060;25.624;2022-11-02T08:12:34;219.60;;;24.50;;
63801;SDS011;49949;43.060;25.624;2022-11-02T08:15:00;56.92;;;13.20;;
63801;SDS011;49949;43.060;25.624;2022-11-02T08:17:25;105.18;;;15.38;;
63801;SDS011;49949;43.060;25.624;2022-11-02T08:19:51;30.00;;;11.35;;
63801;SDS011;49949;43.060;25.624;2022-11-02T08:22:17;27.13;;;12.95;;
63801;SDS011;49949;43.060;25.624;2022-11-02T08:24:42;24.70;;;11.77;;
63801;SDS011;49949;43.060;25.624;2022-11-02T08:27:08;50.03;;;13.80;;
63801;SDS011;49949;43.060;25.624;2022-11-02T08:29:34;26.70;;;12.35;;
63801;SDS011;49949;43.060;25.624;2022-11-02T08:32:00;34.35;;;13.60;;
63801;SDS011;49949;43.060;25.624;2022-11-02T08:34:27;67.68;;;13.63;;
63801;SDS011;49949;43.060;25.624;2022-11-02T08:36:52;25.00;;;12.55;;
63801;SDS011;49949;43.060;25.624;2022-11-02T08:39:18;26.23;;;15.20;;
63801;SDS011;49949;43.060;25.624;2022-11-02T08:41:44;23.77;;;12.88;;
63801;SDS011;49949;43.060;25.624;2022-11-02T08:44:09;91.13;;;16.13;;
63801;SDS011;49949;43.060;25.624;2022-11-02T08:46:35;121.10;;;17.77;;
63801;SDS011;49949;43.060;25.624;2022-11-02T08:49:01;38.17;;;16.25;;
63801;SDS011;49949;43.060;25.624;2022-11-02T08:51:26;22.23;;;12.57;;
63801;SDS011;49949;43.060;25.624;2022-11-02T08:53:52;110.38;;;21.48;;
63801;SDS011;49949;43.060;25.624;2022-11-02T08:56:18;22.20;;;12.32;;
63801;SDS011;49949;43.060;25.624;2022-11-02T08:58:44;38.38;;;16.00;;
63801;SDS011;49949;43.060;25.624;2022-11-02T09:01:09;20.63;;;10.95;;
63801;SDS011;49949;43.060;25.624;2022-11-02T09:03:35;86.72;;;13.30;;
63801;SDS011;49949;43.060;25.624;2022-11-02T09:06:01;200.05;;;18.50;;
63801;SDS011;49949;43.060;25.624;2022-11-02T09:08:27;176.88;;;18.65;;
63801;SDS011;49949;43.060;25.624;2022-11-02T09:10:55;114.22;;;14.48;;
63801;SDS011;49949;43.060;25.624;2022-11-02T09:13:23;19.50;;;9.20;;
63801;SDS011;49949;43.060;25.624;2022-11-02T09:15:53;15.88;;;9.35;;
63801;SDS011;49949;43.060;25.624;2022-11-02T09:18:20;25.87;;;10.17;;
63801;SDS011;49949;43.060;25.624;2022-11-02T09:20:47;48.63;;;8.93;;
63801;SDS011;49949;43.060;25.624;2022-11-02T09:23:16;126.35;;;16.75;;
63801;SDS011;49949;43.060;25.624;2022-11-02T09:25:43;61.90;;;9.80;;
63801;SDS011;49949;43.060;25.624;2022-11-02T09:28:09;73.80;;;9.90;;
63801;SDS011;49949;43.060;25.624;2022-11-02T09:30:35;15.85;;;6.05;;
63801;SDS011;49949;43.060;25.624;2022-11-02T09:33:02;13.90;;;7.30;;
63801;SDS011;49949;43.060;25.624;2022-11-02T09:35:31;14.30;;;8.65;;
63801;SDS011;49949;43.060;25.624;2022-11-02T09:38:01;24.13;;;7.37;;
63801;SDS011;49949;43.060;25.624;2022-11-02T09:40:28;16.65;;;6.22;;
63801;SDS011;49949;43.060;25.624;2022-11-02T09:45:31;13.88;;;5.88;;
63801;SDS011;49949;43.060;25.624;2022-11-02T09:50:41;17.77;;;6.10;;
63801;SDS011;49949;43.060;25.624;2022-11-02T09:53:23;10.35;;;5.30;;
63801;SDS011;49949;43.060;25.624;2022-11-02T09:55:54;15.50;;;5.40;;
63801;SDS011;49949;43.060;25.624;2022-11-02T09:58:26;18.95;;;6.00;;
63801;SDS011;49949;43.060;25.624;2022-11-02T10:00:58;34.50;;;8.05;;
63801;SDS011;49949;43.060;25.624;2022-11-02T10:12:14;24.70;;;4.40;;
63801;SDS011;49949;43.060;25.624;2022-11-02T10:17:28;28.15;;;4.75;;
63801;SDS011;49949;43.060;25.624;2022-11-02T10:19:58;49.92;;;5.28;;
63801;SDS011;49949;43.060;25.624;2022-11-02T10:22:38;17.13;;;3.17;;
63801;SDS011;49949;43.060;25.624;2022-11-02T10:25:06;17.48;;;3.40;;
63801;SDS011;49949;43.060;25.624;2022-11-02T10:27:37;11.13;;;2.83;;
63801;SDS011;49949;43.060;25.624;2022-11-02T10:30:05;19.38;;;2.85;;
63801;SDS011;49949;43.060;25.624;2022-11-02T10:35:02;13.10;;;2.72;;
63801;SDS011;49949;43.060;25.624;2022-11-02T10:48:02;8.27;;;2.42;;
63801;SDS011;49949;43.060;25.624;2022-11-02T10:53:16;17.27;;;3.40;;
63801;SDS011;49949;43.060;25.624;2022-11-02T10:56:06;6.05;;;2.53;;
63801;SDS011;49949;43.060;25.624;2022-11-02T10:58:39;26.92;;;3.70;;
63801;SDS011;49949;43.060;25.624;2022-11-02T11:01:12;12.02;;;3.03;;
63801;SDS011;49949;43.060;25.624;2022-11-02T11:07:10;16.58;;;3.63;;
63801;SDS011;49949;43.060;25.624;2022-11-02T11:09:46;18.67;;;3.50;;
63801;SDS011;49949;43.060;25.624;2022-11-02T11:14:51;17.40;;;3.47;;
63801;SDS011;49949;43.060;25.624;2022-11-02T11:17:31;9.00;;;2.75;;
63801;SDS011;49949;43.060;25.624;2022-11-02T11:20:02;11.48;;;3.38;;
63801;SDS011;49949;43.060;25.624;2022-11-02T11:22:32;14.15;;;3.53;;
63801;SDS011;49949;43.060;25.624;2022-11-02T11:27:57;15.23;;;3.55;;
63801;SDS011;49949;43.060;25.624;2022-11-02T11:33:03;10.82;;;3.20;;
63801;SDS011;49949;43.060;25.624;2022-11-02T11:35:31;14.77;;;2.53;;
63801;SDS011;49949;43.060;25.624;2022-11-02T11:38:15;12.02;;;2.80;;
63801;SDS011;49949;43.060;25.624;2022-11-02T11:40:48;66.03;;;4.18;;
63801;SDS011;49949;43.060;25.624;2022-11-02T11:43:20;19.33;;;3.70;;
63801;SDS011;49949;43.060;25.624;2022-11-02T11:50:56;10.27;;;2.47;;
63801;SDS011;49949;43.060;25.624;2022-11-02T11:53:24;14.40;;;2.88;;
63801;SDS011;49949;43.060;25.624;2022-11-02T11:55:51;13.80;;;2.97;;
63801;SDS011;49949;43.060;25.624;2022-11-02T11:58:20;50.10;;;6.13;;
63801;SDS011;49949;43.060;25.624;2022-11-02T12:03:28;124.20;;;8.40;;
63801;SDS011;49949;43.060;25.624;2022-11-02T12:13:54;10.07;;;3.05;;
63801;SDS011;49949;43.060;25.624;2022-11-02T12:27:26;6.20;;;2.40;;
63801;SDS011;49949;43.060;25.624;2022-11-02T12:47:57;6.63;;;1.85;;
63801;SDS011;49949;43.060;25.624;2022-11-02T12:56:00;11.57;;;2.13;;
63801;SDS011;49949;43.060;25.624;2022-11-02T12:58:30;8.68;;;2.60;;
63801;SDS011;49949;43.060;25.624;2022-11-02T13:01:22;7.25;;;2.08;;
63801;SDS011;49949;43.060;25.624;2022-11-02T13:06:29;7.53;;;2.08;;
63801;SDS011;49949;43.060;25.624;2022-11-02T13:11:52;11.10;;;2.00;;
63801;SDS011;49949;43.060;25.624;2022-11-02T13:14:21;9.93;;;2.10;;
63801;SDS011;49949;43.060;25.624;2022-11-02T13:17:02;11.10;;;3.83;;
63801;SDS011;49949;43.060;25.624;2022-11-02T13:19:39;7.35;;;2.05;;
63801;SDS011;49949;43.060;25.624;2022-11-02T13:22:09;10.75;;;2.88;;
63801;SDS011;49949;43.060;25.624;2022-11-02T13:24:47;61.13;;;4.30;;
63801;SDS011;49949;43.060;25.624;2022-11-02T13:27:24;19.67;;;3.42;;
63801;SDS011;49949;43.060;25.624;2022-11-02T13:29:55;8.35;;;2.08;;
63801;SDS011;49949;43.060;25.624;2022-11-02T13:32:27;7.30;;;2.13;;
63801;SDS011;49949;43.060;25.624;2022-11-02T13:35:11;11.02;;;2.25;;
63801;SDS011;49949;43.060;25.624;2022-11-02T13:49:19;4.00;;;1.95;;
63801;SDS011;49949;43.060;25.624;2022-11-02T13:51:51;17.02;;;3.08;;
63801;SDS011;49949;43.060;25.624;2022-11-02T13:54:26;11.40;;;2.22;;
63801;SDS011;49949;43.060;25.624;2022-11-02T13:56:53;9.32;;;1.77;;
63801;SDS011;49949;43.060;25.624;2022-11-02T13:59:34;26.27;;;2.65;;
63801;SDS011;49949;43.060;25.624;2022-11-02T14:02:05;20.58;;;3.13;;
63801;SDS011;49949;43.060;25.624;2022-11-02T14:04:37;46.08;;;4.47;;
63801;SDS011;49949;43.060;25.624;2022-11-02T14:07:06;9.55;;;1.75;;
63801;SDS011;49949;43.060;25.624;2022-11-02T14:09:44;42.90;;;3.30;;
63801;SDS011;49949;43.060;25.624;2022-11-02T14:14:45;18.33;;;2.67;;
63801;SDS011;49949;43.060;25.624;2022-11-02T14:20:37;26.95;;;3.42;;
63801;SDS011;49949;43.060;25.624;2022-11-02T14:30:49;20.33;;;3.28;;
63801;SDS011;49949;43.060;25.624;2022-11-02T14:43:56;129.00;;;9.57;;
63801;SDS011;49949;43.060;25.624;2022-11-02T14:49:25;81.78;;;5.28;;
63801;SDS011;49949;43.060;25.624;2022-11-02T14:51:54;51.13;;;4.45;;
63801;SDS011;49949;43.060;25.624;2022-11-02T14:54:39;25.45;;;3.97;;
63801;SDS011;49949;43.060;25.624;2022-11-02T14:57:22;34.28;;;3.60;;
63801;SDS011;49949;43.060;25.624;2022-11-02T14:59:59;37.88;;;5.55;;
63801;SDS011;49949;43.060;25.624;2022-11-02T15:02:30;52.67;;;7.05;;
63801;SDS011;49949;43.060;25.624;2022-11-02T15:04:57;107.53;;;7.85;;
63801;SDS011;49949;43.060;25.624;2022-11-02T15:07:32;182.90;;;11.18;;
63801;SDS011;49949;43.060;25.624;2022-11-02T15:12:39;38.15;;;4.25;;
63801;SDS011;49949;43.060;25.624;2022-11-02T15:22:46;20.85;;;2.72;;
63801;SDS011;49949;43.060;25.624;2022-11-02T15:25:17;78.07;;;7.13;;
63801;SDS011;49949;43.060;25.624;2022-11-02T15:27:50;43.58;;;5.15;;
63801;SDS011;49949;43.060;25.624;2022-11-02T15:30:21;45.42;;;4.68;;
63801;SDS011;49949;43.060;25.624;2022-11-02T15:32:48;50.75;;;5.68;;
63801;SDS011;49949;43.060;25.624;2022-11-02T15:35:19;33.67;;;4.32;;
63801;SDS011;49949;43.060;25.624;2022-11-02T15:37:50;14.48;;;3.30;;
63801;SDS011;49949;43.060;25.624;2022-11-02T15:40:27;13.30;;;3.38;;
63801;SDS011;49949;43.060;25.624;2022-11-02T15:46:00;12.45;;;3.30;;
63801;SDS011;49949;43.060;25.624;2022-11-02T16:02:35;13.05;;;3.03;;
63801;SDS011;49949;43.060;25.624;2022-11-02T16:05:04;3.97;;;2.47;;
63801;SDS011;49949;43.060;25.624;2022-11-02T16:07:30;15.30;;;3.55;;
63801;SDS011;49949;43.060;25.624;2022-11-02T16:12:59;15.73;;;3.42;;
63801;SDS011;49949;43.060;25.624;2022-11-02T16:15:26;13.07;;;3.42;;
63801;SDS011;49949;43.060;25.624;2022-11-02T16:17:53;20.00;;;4.70;;
63801;SDS011;49949;43.060;25.624;2022-11-02T16:20:28;20.20;;;4.25;;
63801;SDS011;49949;43.060;25.624;2022-11-02T16:22:59;8.75;;;3.13;;
63801;SDS011;49949;43.060;25.624;2022-11-02T16:28:17;10.32;;;3.05;;
63801;SDS011;49949;43.060;25.624;2022-11-02T16:33:46;10.18;;;3.15;;
63801;SDS011;49949;43.060;25.624;2022-11-02T16:36:23;13.18;;;3.10;;
63801;SDS011;49949;43.060;25.624;2022-11-02T16:41:26;42.88;;;4.00;;
63801;SDS011;49949;43.060;25.624;2022-11-02T16:43:57;22.75;;;3.75;;
63801;SDS011;49949;43.060;25.624;2022-11-02T16:46:30;19.58;;;2.88;;
63801;SDS011;49949;43.060;25.624;2022-11-02T16:49:10;9.23;;;2.72;;
63801;SDS011;49949;43.060;25.624;2022-11-02T16:51:57;13.00;;;3.05;;
63801;SDS011;49949;43.060;25.624;2022-11-02T16:57:03;10.18;;;2.25;;
63801;SDS011;49949;43.060;25.624;2022-11-02T16:59:32;13.05;;;3.55;;
63801;SDS011;49949;43.060;25.624;2022-11-02T17:02:00;23.75;;;3.03;;
63801;SDS011;49949;43.060;25.624;2022-11-02T17:04:30;13.73;;;3.05;;
63801;SDS011;49949;43.060;25.624;2022-11-02T17:06:58;24.42;;;2.92;;
63801;SDS011;49949;43.060;25.624;2022-11-02T17:09:40;20.23;;;3.17;;
63801;SDS011;49949;43.060;25.624;2022-11-02T17:12:10;15.88;;;3.60;;
63801;SDS011;49949;43.060;25.624;2022-11-02T17:14:42;9.93;;;3.38;;
63801;SDS011;49949;43.060;25.624;2022-11-02T17:19:55;14.77;;;3.05;;
63801;SDS011;49949;43.060;25.624;2022-11-02T17:22:37;14.13;;;3.35;;
63801;SDS011;49949;43.060;25.624;2022-11-02T17:25:29;9.88;;;2.70;;
63801;SDS011;49949;43.060;25.624;2022-11-02T17:27:57;9.63;;;2.95;;
63801;SDS011;49949;43.060;25.624;2022-11-02T17:33:00;16.15;;;2.72;;
63801;SDS011;49949;43.060;25.624;2022-11-02T17:35:55;12.60;;;2.97;;
63801;SDS011;49949;43.060;25.624;2022-11-02T17:38:28;11.52;;;3.10;;
63801;SDS011;49949;43.060;25.624;2022-11-02T17:40:54;10.52;;;2.45;;
63801;SDS011;49949;43.060;25.624;2022-11-02T17:43:20;13.70;;;3.30;;
63801;SDS011;49949;43.060;25.624;2022-11-02T17:45:56;9.88;;;4.50;;
63801;SDS011;49949;43.060;25.624;2022-11-02T17:48:23;13.10;;;3.45;;
63801;SDS011;49949;43.060;25.624;2022-11-02T17:50:52;15.05;;;3.95;;
63801;SDS011;49949;43.060;25.624;2022-11-02T17:53:19;14.15;;;3.25;;
63801;SDS011;49949;43.060;25.624;2022-11-02T17:55:45;14.77;;;3.17;;
63801;SDS011;49949;43.060;25.624;2022-11-02T17:58:10;20.63;;;3.42;;
63801;SDS011;49949;43.060;25.624;2022-11-02T18:00:38;16.10;;;3.53;;
63801;SDS011;49949;43.060;25.624;2022-11-02T18:03:04;7.90;;;2.38;;
63801;SDS011;49949;43.060;25.624;2022-11-02T18:05:41;5.65;;;2.63;;
63801;SDS011;49949;43.060;25.624;2022-11-02T18:08:07;15.00;;;2.83;;
63801;SDS011;49949;43.060;25.624;2022-11-02T18:10:38;8.52;;;2.90;;
63801;SDS011;49949;43.060;25.624;2022-11-02T18:13:05;14.88;;;3.42;;
63801;SDS011;49949;43.060;25.624;2022-11-02T18:15:34;12.98;;;3.00;;
63801;SDS011;49949;43.060;25.624;2022-11-02T18:18:00;14.25;;;3.05;;
63801;SDS011;49949;43.060;25.624;2022-11-02T18:20:26;22.63;;;2.67;;
63801;SDS011;49949;43.060;25.624;2022-11-02T18:22:56;9.20;;;3.10;;
63801;SDS011;49949;43.060;25.624;2022-11-02T18:25:22;8.02;;;2.72;;
63801;SDS011;49949;43.060;25.624;2022-11-02T18:27:50;9.70;;;3.05;;